Time;durP1;ratioP1;P1;durP2;ratioP2;P2;SDS_P1;SDS_P2;PMS_P1;PMS_P2;Temp;Humidity;BMP_temperature;BMP_pressure;BME280_temperature;BME280_humidity;BME280_pressure;Samples;Min_cycle;Max_cycle;Signal;HPM_P1;HPM_P2
2024/03/25 00:05:32;;;;;;;9.70;5.10;;;;;;;1.71;70.36;97628.93;102834;1294;599349;-27
2024/03/25 00:07:59;;;;;;;10.30;6.30;;;;;;;2.33;70.72;97632.73;104822;1270;61196;-29
2024/03/25 00:10:27;;;;;;;10.60;6.50;;;;;;;3.07;68.43;97633.17;104795;1269;61200;-28
2024/03/25 00:12:56;;;;;;;12.10;7.60;;;;;;;3.18;67.19;97634.09;104839;1267;71130;-28
2024/03/25 00:15:24;;;;;;;15.30;8.90;;;;;;;3.00;66.67;97634.90;104894;1269;74324;-28
2024/03/25 00:17:51;;;;;;;10.60;6.60;;;;;;;2.69;66.43;97633.63;104841;1270;72674;-28
2024/03/25 00:20:19;;;;;;;14.20;7.00;;;;;;;2.40;67.04;97635.88;104885;1267;246734;-27
2024/03/25 00:28:59;;;;;;;9.50;6.20;;;;;;;1.67;69.28;97633.17;102725;1293;600106;-25
2024/03/25 00:31:27;;;;;;;9.00;4.00;;;;;;;1.37;70.25;97635.67;104822;1267;61103;-27
2024/03/25 00:33:54;;;;;;;8.80;4.20;;;;;;;1.82;70.51;97640.20;104834;1269;61074;-28
2024/03/25 00:43:56;;;;;;;12.00;7.00;;;;;;;2.64;65.87;97640.84;102689;1291;599457;-25
2024/03/25 00:46:23;;;;;;;10.10;6.10;;;;;;;2.27;66.36;97642.79;104839;1266;61059;-27
2024/03/25 00:56:31;;;;;;;9.60;4.70;;;;;;;1.22;69.37;97642.45;102691;1293;600537;-25
2024/03/25 00:59:02;;;;;;;9.50;5.20;;;;;;;1.46;70.70;97634.20;104869;1266;61198;-27
2024/03/25 01:01:30;;;;;;;10.80;6.20;;;;;;;2.37;68.57;97633.02;104787;1268;61213;-28
2024/03/25 01:03:58;;;;;;;9.70;6.70;;;;;;;2.58;66.94;97629.46;104824;1267;70967;-27
2024/03/25 01:06:26;;;;;;;9.40;6.40;;;;;;;2.45;66.74;97631.72;104752;1274;74326;-28
2024/03/25 01:08:53;;;;;;;10.90;6.50;;;;;;;2.24;67.03;97631.52;104708;1270;72668;-28
2024/03/25 01:11:21;;;;;;;8.80;5.20;;;;;;;2.03;68.29;97622.67;105034;1266;160793;-28
2024/03/25 01:13:49;;;;;;;7.80;4.60;;;;;;;1.88;69.21;97622.46;105021;1264;61049;-28
2024/03/25 01:16:16;;;;;;;7.10;4.30;;;;;;;1.74;70.65;97627.19;104826;1270;70982;-27
2024/03/25 01:18:44;;;;;;;12.40;5.60;;;;;;;1.59;69.77;97627.67;104808;1264;74361;-27
2024/03/25 01:21:12;;;;;;;7.70;4.00;;;;;;;1.38;70.02;97631.50;104788;1270;72760;-28
2024/03/25 01:31:18;;;;;;;7.50;5.60;;;;;;;2.69;67.42;97640.68;102653;1290;600068;-27
2024/03/25 01:41:22;;;;;;;6.40;3.60;;;;;;;1.80;68.09;97645.44;102723;1294;598914;-27
2024/03/25 01:43:50;;;;;;;9.00;4.90;;;;;;;1.54;69.41;97650.80;104856;1267;61025;-29
2024/03/25 01:46:18;;;;;;;9.20;3.60;;;;;;;1.22;72.33;97652.70;104812;1271;61243;-27
2024/03/25 01:56:26;;;;;;;8.30;5.20;;;;;;;2.49;65.81;97657.33;102677;1292;598776;-28
2024/03/25 02:06:35;;;;;;;15.00;7.40;;;;;;;1.53;67.97;97655.31;102676;1296;600240;-27
2024/03/25 02:09:03;;;;;;;11.80;6.00;;;;;;;1.29;68.27;97653.92;104868;1272;61175;-27
2024/03/25 02:11:31;;;;;;;7.70;4.90;;;;;;;1.08;68.57;97655.16;104843;1266;61110;-28
2024/03/25 02:13:59;;;;;;;13.20;6.00;;;;;;;1.49;69.09;97655.38;105485;1257;73117;-27
2024/03/25 02:16:26;;;;;;;12.50;6.80;;;;;;;2.38;67.28;97657.76;105382;1257;74328;-25
2024/03/25 02:26:34;;;;;;;11.00;5.50;;;;;;;2.02;65.79;97659.17;102694;1292;599492;-27
2024/03/25 02:29:02;;;;;;;10.40;6.30;;;;;;;1.65;66.56;97657.61;104828;1266;61105;-28
2024/03/25 02:39:12;;;;;;;11.40;7.00;;;;;;;2.20;67.24;97653.16;102802;1289;599430;-25
2024/03/25 02:41:40;;;;;;;13.20;7.30;;;;;;;2.18;66.74;97659.67;105211;1260;61059;-27
2024/03/25 02:44:07;;;;;;;12.80;7.70;;;;;;;2.00;66.80;97666.70;105220;1267;61209;-28
2024/03/25 02:54:15;;;;;;;9.00;5.80;;;;;;;1.23;68.17;97667.36;102730;1303;599357;-27
2024/03/25 02:56:44;;;;;;;7.10;3.30;;;;;;;0.96;68.95;97663.95;104911;1271;61116;-27
2024/03/25 02:59:11;;;;;;;9.20;5.20;;;;;;;1.49;69.09;97665.80;104826;1271;61188;-28
2024/03/25 03:01:39;;;;;;;9.20;5.20;;;;;;;2.14;67.47;97667.15;104812;1265;72997;-28
2024/03/25 03:04:06;;;;;;;12.00;7.10;;;;;;;2.16;66.21;97665.23;104834;1267;73048;-28
2024/03/25 03:06:34;;;;;;;14.50;7.90;;;;;;;1.97;66.19;97670.02;104836;1270;71362;-27
2024/03/25 03:09:01;;;;;;;11.60;7.20;;;;;;;1.74;66.32;97668.98;104900;1269;215378;-27
2024/03/25 03:11:29;;;;;;;12.80;6.90;;;;;;;1.48;66.83;97669.63;105080;1266;61229;-28
2024/03/25 03:13:57;;;;;;;11.40;6.60;;;;;;;1.52;66.77;97669.58;105068;1261;73095;-27
2024/03/25 03:16:24;;;;;;;14.10;7.80;;;;;;;1.32;66.82;97671.00;105139;1261;74387;-27
2024/03/25 03:18:52;;;;;;;10.60;6.20;;;;;;;1.22;67.20;97672.55;105163;1263;72622;-27
2024/03/25 03:21:19;;;;;;;9.30;4.40;;;;;;;1.13;68.09;97675.69;105194;1263;61039;-27
2024/03/25 03:23:47;;;;;;;12.70;5.70;;;;;;;1.87;67.83;97675.77;105087;1260;61124;-28
2024/03/25 03:26:14;;;;;;;10.90;6.50;;;;;;;2.38;66.55;97675.23;105136;1261;74283;-28
2024/03/25 03:28:42;;;;;;;18.10;7.70;;;;;;;2.37;66.03;97673.08;105166;1260;74310;-27
2024/03/25 03:31:10;;;;;;;14.20;8.30;;;;;;;2.54;65.60;97665.52;105178;1264;72707;-28
2024/03/25 03:41:20;;;;;;;10.20;6.40;;;;;;;1.87;66.52;97624.45;102705;1294;600391;-27
2024/03/25 03:43:48;;;;;;;11.60;5.40;;;;;;;1.62;67.41;97618.39;104837;1267;61149;-27
2024/03/25 03:46:16;;;;;;;16.30;7.20;;;;;;;2.10;66.62;97615.69;104882;1270;61046;-27
2024/03/25 03:48:43;;;;;;;19.70;8.50;;;;;;;2.92;64.24;97610.92;104838;1268;71830;-28
2024/03/25 03:58:52;;;;;;;13.20;6.80;;;;;;;2.15;62.55;97609.31;102649;1295;599338;-27
2024/03/25 04:01:20;;;;;;;8.50;4.30;;;;;;;1.84;63.53;97602.55;104779;1270;61075;-28
2024/03/25 04:03:47;;;;;;;11.60;5.60;;;;;;;1.61;63.85;97599.20;105223;1260;61136;-28
2024/03/25 04:06:15;;;;;;;16.00;7.50;;;;;;;1.17;65.76;97591.77;105232;1267;71770;-28
2024/03/25 04:08:43;;;;;;;40.40;15.30;;;;;;;0.94;66.97;97594.48;105243;1260;74285;-27
2024/03/25 04:11:10;;;;;;;25.50;10.20;;;;;;;0.44;68.73;97596.67;105278;1267;71441;-27
2024/03/25 04:13:38;;;;;;;103.40;48.60;;;;;;;1.07;69.86;97588.73;105152;1258;126452;-28
2024/03/25 04:16:06;;;;;;;119.20;46.60;;;;;;;2.11;67.13;97592.30;105382;1263;61172;-28
2024/03/25 04:18:34;;;;;;;78.60;34.40;;;;;;;2.46;65.41;97598.75;105482;1257;71836;-27
2024/03/25 04:21:01;;;;;;;41.30;17.60;;;;;;;2.55;65.02;97596.63;105255;1264;73390;-28
2024/03/25 04:23:29;;;;;;;38.60;17.60;;;;;;;2.42;64.84;97596.33;105382;1260;72721;-27
2024/03/25 04:26:00;;;;;;;39.20;16.20;;;;;;;2.28;64.63;97598.00;105246;1261;61097;-27
2024/03/25 04:36:02;;;;;;;15.70;7.20;;;;;;;1.77;66.90;97601.65;102619;1292;601192;-27
2024/03/25 04:38:30;;;;;;;18.10;10.10;;;;;;;2.68;65.90;97610.77;104826;1269;61139;-28
2024/03/25 04:40:57;;;;;;;18.70;10.90;;;;;;;3.43;63.63;97615.25;104803;1267;61264;-27
2024/03/25 04:43:25;;;;;;;31.20;15.60;;;;;;;3.85;62.81;97619.29;104786;1271;73029;-25
2024/03/25 04:45:52;;;;;;;132.70;69.40;;;;;;;3.87;62.68;97621.59;105333;1264;74336;-25
2024/03/25 04:48:21;;;;;;;101.90;46.70;;;;;;;3.80;62.49;97623.66;105418;1260;72675;-25
2024/03/25 04:50:48;;;;;;;96.60;38.30;;;;;;;3.68;62.97;97618.56;105353;1260;357167;-26
2024/03/25 04:53:16;;;;;;;60.60;29.50;;;;;;;3.53;62.72;97618.24;105617;1257;61125;-25
2024/03/25 05:03:24;;;;;;;36.30;17.20;;;;;;;2.17;65.35;97632.66;103269;1286;599373;-25
2024/03/25 05:05:52;;;;;;;21.90;10.80;;;;;;;2.19;66.28;97635.46;104806;1270;61114;-25
2024/03/25 05:16:04;;;;;;;23.00;13.20;;;;;;;4.26;63.41;97636.27;102679;1293;600255;-24
2024/03/25 05:18:31;;;;;;;21.80;12.10;;;;;;;3.99;62.96;97636.62;104825;1272;61226;-25
2024/03/25 05:20:59;;;;;;;18.80;10.40;;;;;;;3.75;63.20;97636.21;104868;1272;61187;-25
2024/03/25 05:23:27;;;;;;;16.80;10.80;;;;;;;3.52;63.61;97634.30;104881;1271;72994;-25
2024/03/25 05:33:34;;;;;;;16.30;9.10;;;;;;;3.01;65.96;97637.55;102763;1292;599873;-22
2024/03/25 05:36:02;;;;;;;33.60;17.10;;;;;;;3.78;66.27;97641.62;104817;1267;61209;-24
2024/03/25 05:38:30;;;;;;;32.70;18.10;;;;;;;4.67;64.20;97644.23;104843;1266;62712;-25
2024/03/25 05:40:57;;;;;;;27.80;13.30;;;;;;;5.00;62.75;97641.61;104807;1266;73084;-25
2024/03/25 05:43:25;;;;;;;21.60;10.60;;;;;;;5.14;62.69;97642.70;104721;1266;73104;-26
2024/03/25 05:45:56;;;;;;;18.00;9.20;;;;;;;5.21;62.32;97647.48;105500;1253;71396;-25
2024/03/25 05:48:27;;;;;;;19.20;8.30;;;;;;;5.16;62.54;97650.61;105717;1257;204044;-25
2024/03/25 05:58:32;;;;;;;10.50;7.50;;;;;;;5.10;63.70;97654.23;102645;1292;600178;-23
2024/03/25 06:08:40;;;;;;;11.30;7.40;;;;;;;7.45;63.05;97666.36;102700;1292;599134;-23
2024/03/25 06:18:47;;;;;;;10.80;7.50;;;;;;;7.78;59.91;97674.60;102667;1292;598537;-23
2024/03/25 06:21:14;;;;;;;10.00;8.30;;;;;;;7.44;60.49;97675.61;104832;1270;61190;-23
2024/03/25 06:23:42;;;;;;;12.40;8.20;;;;;;;7.20;61.18;97674.27;104840;1267;61235;-23
2024/03/25 06:26:10;;;;;;;11.10;6.80;;;;;;;6.91;61.18;97673.62;104777;1271;73519;-24
2024/03/25 06:28:39;;;;;;;13.90;8.20;;;;;;;6.61;61.78;97671.18;104889;1271;75542;-24
2024/03/25 06:36:41;;;;;;;11.90;5.50;;;;;;;5.76;65.15;97684.15;105038;1262;61137;-24
2024/03/25 06:39:09;;;;;;;14.80;8.70;;;;;;;6.45;64.91;97691.15;104874;1271;75764;-24
2024/03/25 06:41:37;;;;;;;17.80;10.50;;;;;;;7.29;63.22;97697.30;104849;1263;74360;-24
2024/03/25 06:44:05;;;;;;;19.90;12.60;;;;;;;7.50;62.28;97698.20;104828;1269;74214;-24
2024/03/25 06:46:33;;;;;;;18.50;9.80;;;;;;;7.45;62.12;97705.86;104860;1270;61170;-24
2024/03/25 06:56:33;;;;;;;15.20;9.10;;;;;;;7.01;63.87;97719.58;102683;1292;599761;-25
2024/03/25 06:59:01;;;;;;;15.40;10.90;;;;;;;7.01;64.24;97718.80;104773;1267;61384;-26
2024/03/25 07:01:28;;;;;;;16.40;10.80;;;;;;;7.08;64.53;97717.11;104810;1272;61161;-25
2024/03/25 07:03:56;;;;;;;14.10;7.20;;;;;;;7.08;65.03;97721.24;104712;1272;73001;-25
2024/03/25 07:06:25;;;;;;;13.10;8.00;;;;;;;7.76;64.26;97720.09;104788;1268;73111;-25
2024/03/25 07:08:53;;;;;;;16.40;9.60;;;;;;;8.62;61.52;97722.06;104794;1270;72642;-26
2024/03/25 07:11:21;;;;;;;17.10;11.20;;;;;;;8.93;60.88;97721.03;104717;1268;198334;-26
2024/03/25 07:13:49;;;;;;;18.70;10.70;;;;;;;9.03;60.80;97718.56;104839;1269;62273;-26
2024/03/25 07:16:18;;;;;;;25.20;14.00;;;;;;;9.02;60.24;97719.70;104872;1267;75745;-26
2024/03/25 07:18:45;;;;;;;20.20;14.50;;;;;;;8.97;59.73;97720.19;104895;1265;75903;-26
2024/03/25 07:21:13;;;;;;;25.70;15.90;;;;;;;8.96;59.78;97720.55;104809;1270;72683;-28
2024/03/25 07:23:40;;;;;;;25.10;15.60;;;;;;;8.97;59.70;97726.34;104822;1266;61148;-27
2024/03/25 07:26:08;;;;;;;33.60;20.40;;;;;;;9.00;59.56;97732.47;105245;1264;61095;-26
2024/03/25 07:28:36;;;;;;;27.70;16.10;;;;;;;9.06;58.85;97731.09;105252;1264;74518;-27
2024/03/25 07:31:04;;;;;;;29.00;15.30;;;;;;;9.12;59.64;97733.27;105248;1257;75904;-26
2024/03/25 07:41:05;;;;;;;48.70;25.80;;;;;;;9.69;59.91;97733.27;102783;1288;600311;-25
2024/03/25 07:43:32;;;;;;;;;;;;;;;9.81;59.46;97733.34;104777;1273;63073;-25
2024/03/25 07:46:00;;;;;;;33.20;18.80;;;;;;;9.81;59.87;97728.50;104881;1265;61070;-25
2024/03/25 07:48:28;;;;;;;31.80;17.20;;;;;;;9.93;59.39;97729.73;104801;1266;75237;-25
2024/03/25 07:50:55;;;;;;;25.40;16.20;;;;;;;9.92;59.18;97730.88;104835;1270;74586;-25
2024/03/25 07:54:16;;;;;;;27.90;16.80;;;;;;;9.73;59.74;97728.73;102705;1289;601312;-25
2024/03/25 07:56:44;;;;;;;28.80;15.50;;;;;;;9.92;58.45;97730.02;104919;1265;61903;-27
2024/03/25 07:59:12;;;;;;;26.70;16.20;;;;;;;10.09;59.28;97729.70;104815;1272;62287;-25
2024/03/25 08:01:39;;;;;;;23.70;15.80;;;;;;;10.20;58.62;97730.34;104822;1279;74514;-26
2024/03/25 08:04:08;;;;;;;30.50;16.90;;;;;;;10.63;57.19;97723.91;104829;1269;76305;-26
2024/03/25 08:06:36;;;;;;;25.10;16.20;;;;;;;10.92;58.25;97727.56;104896;1267;75420;-27
2024/03/25 08:09:07;;;;;;;30.20;18.80;;;;;;;10.89;57.65;97721.11;104930;1268;194278;-27
2024/03/25 08:11:34;;;;;;;23.60;15.70;;;;;;;11.16;55.88;97717.14;105074;1267;62553;-27
2024/03/25 08:14:02;;;;;;;26.60;17.30;;;;;;;10.98;55.34;97715.66;105167;1264;74198;-26
2024/03/25 08:16:30;;;;;;;28.40;16.80;;;;;;;10.42;55.71;97714.83;105096;1266;76915;-26
2024/03/25 08:18:57;;;;;;;22.60;15.80;;;;;;;10.13;57.51;97716.33;105110;1264;74204;-26
2024/03/25 08:21:25;;;;;;;16.30;10.70;;;;;;;10.77;56.68;97714.17;105205;1267;62897;-26
2024/03/25 08:23:53;;;;;;;17.60;10.50;;;;;;;11.33;53.95;97723.68;105065;1267;61686;-27
2024/03/25 08:26:21;;;;;;;13.90;8.70;;;;;;;11.71;52.65;97724.15;105190;1266;76117;-27
2024/03/25 08:28:51;;;;;;;14.20;8.30;;;;;;;12.02;51.47;97721.41;105095;1270;76482;-27
2024/03/25 08:31:19;;;;;;;15.70;8.90;;;;;;;12.27;50.36;97723.64;105014;1266;74913;-26
2024/03/25 08:33:47;;;;;;;11.10;6.30;;;;;;;12.29;49.76;97722.14;105163;1267;62840;-26
2024/03/25 08:36:14;;;;;;;9.10;5.30;;;;;;;12.37;49.80;97716.63;105173;1267;62183;-26
2024/03/25 08:38:42;;;;;;;5.50;2.40;;;;;;;12.49;46.62;97716.98;105151;1267;76637;-26
2024/03/25 08:41:11;;;;;;;6.00;3.10;;;;;;;12.71;46.12;97715.54;105104;1266;77165;-26
2024/03/25 08:43:39;;;;;;;6.20;5.00;;;;;;;12.83;47.03;97715.66;105012;1269;75404;-26
2024/03/25 08:46:06;;;;;;;8.40;5.50;;;;;;;13.04;47.02;97718.80;105115;1268;63289;-26
2024/03/25 08:48:34;;;;;;;11.60;5.60;;;;;;;13.21;48.19;97716.16;105062;1264;61445;-26
2024/03/25 08:51:03;;;;;;;10.10;5.60;;;;;;;12.68;47.09;97715.48;104726;1267;75084;-28
2024/03/25 08:53:31;;;;;;;6.90;4.20;;;;;;;12.89;46.23;97713.84;105042;1267;76816;-27
2024/03/25 08:55:59;;;;;;;6.60;4.30;;;;;;;13.01;46.10;97711.67;105148;1267;75586;-27
2024/03/25 08:58:26;;;;;;;5.40;2.60;;;;;;;13.17;45.07;97711.92;104829;1264;61575;-27
2024/03/25 09:00:54;;;;;;;5.00;2.80;;;;;;;13.53;43.59;97710.86;104880;1264;62837;-27
2024/03/25 09:03:22;;;;;;;3.50;1.50;;;;;;;13.51;41.53;97709.48;104989;1267;75213;-27
2024/03/25 09:05:54;;;;;;;4.60;2.60;;;;;;;12.83;40.34;97711.38;105080;1269;76801;-26
2024/03/25 09:08:22;;;;;;;4.90;2.20;;;;;;;12.88;41.93;97707.63;105011;1266;75471;-27
2024/03/25 09:11:02;;;;;;;5.50;2.00;;;;;;;13.47;41.85;97712.47;104934;1263;62871;-27
2024/03/25 09:13:30;;;;;;;4.00;1.80;;;;;;;14.21;42.12;97714.72;104990;1267;61450;-26
2024/03/25 09:15:58;;;;;;;1.50;1.40;;;;;;;14.69;40.92;97709.98;104853;1267;76281;-27
2024/03/25 09:18:26;;;;;;;3.20;1.40;;;;;;;14.85;39.37;97714.11;104854;1268;77190;-27
2024/03/25 09:20:55;;;;;;;2.30;1.30;;;;;;;14.96;38.57;97714.71;105106;1267;75519;-27
2024/03/25 09:23:23;;;;;;;3.60;1.30;;;;;;;15.12;38.25;97713.77;105054;1264;61237;-27
2024/03/25 09:25:52;;;;;;;3.20;1.20;;;;;;;15.28;37.70;97712.98;105545;1260;62960;-27
2024/03/25 09:28:20;;;;;;;2.80;1.30;;;;;;;15.44;36.36;97708.80;105203;1264;75254;-27
2024/03/25 09:30:48;;;;;;;3.60;1.40;;;;;;;15.17;38.02;97706.34;105545;1263;77090;-28
2024/03/25 09:33:16;;;;;;;4.80;1.80;;;;;;;15.10;37.12;97703.27;105643;1260;74087;-25
2024/03/25 09:35:44;;;;;;;2.40;1.40;;;;;;;15.15;37.47;97704.60;105624;1260;61623;-25
2024/03/25 09:38:12;;;;;;;2.60;1.40;;;;;;;14.86;38.33;97702.50;105640;1261;62950;-25
2024/03/25 09:40:40;;;;;;;4.70;1.90;;;;;;;14.68;37.91;97702.92;105955;1256;76703;-25
2024/03/25 09:43:17;;;;;;;2.20;1.50;;;;;;;14.55;37.82;97703.55;105782;1251;78494;-26
2024/03/25 09:45:45;;;;;;;3.60;1.70;;;;;;;14.78;38.39;97705.71;105740;1257;75425;-26
2024/03/25 09:48:13;;;;;;;2.60;1.70;;;;;;;14.99;37.94;97705.70;105663;1258;63864;-26
2024/03/25 09:50:40;;;;;;;2.20;1.30;;;;;;;15.15;37.53;97702.18;105772;1256;61154;-26
2024/03/25 09:53:08;;;;;;;3.20;1.50;;;;;;;15.16;37.02;97700.65;105907;1251;76639;-26
2024/03/25 09:55:36;;;;;;;3.60;1.90;;;;;;;15.19;37.19;97699.27;105943;1255;76290;-26
2024/03/25 09:58:04;;;;;;;1.60;1.10;;;;;;;15.37;36.42;97696.96;105846;1257;72831;-26
2024/03/25 10:00:31;;;;;;;3.00;1.30;;;;;;;15.35;36.15;97695.81;105708;1251;62957;-26
2024/03/25 10:03:00;;;;;;;2.40;1.10;;;;;;;15.19;35.98;97689.11;105965;1251;61783;-26
2024/03/25 10:05:28;;;;;;;1.60;0.90;;;;;;;14.91;35.51;97690.58;105739;1251;75911;-26
2024/03/25 10:07:56;;;;;;;2.40;1.00;;;;;;;14.83;35.55;97690.61;105973;1256;76826;-26
2024/03/25 10:10:23;;;;;;;1.20;1.10;;;;;;;14.86;34.83;97691.70;105704;1251;75084;-26
2024/03/25 10:12:52;;;;;;;2.10;1.00;;;;;;;14.80;33.73;97690.26;105863;1256;61129;-26
2024/03/25 10:15:20;;;;;;;1.30;0.70;;;;;;;15.10;34.12;97689.07;105709;1261;62279;-26
2024/03/25 10:17:52;;;;;;;2.20;1.00;;;;;;;15.38;33.33;97690.34;105960;1257;76644;-26
2024/03/25 10:20:20;;;;;;;1.60;0.90;;;;;;;15.47;31.21;97688.20;105964;1252;76636;-26
2024/03/25 10:22:48;;;;;;;2.80;0.80;;;;;;;15.43;32.27;97689.34;105971;1255;74039;-26
2024/03/25 10:25:27;;;;;;;1.10;0.80;;;;;;;15.77;31.77;97689.91;105937;1251;62914;-26
2024/03/25 10:28:01;;;;;;;3.00;1.40;;;;;;;16.18;32.82;97688.96;105769;1257;62750;-26
2024/03/25 10:30:29;;;;;;;3.10;1.40;;;;;;;15.97;32.88;97679.70;105689;1258;76734;-26
2024/03/25 10:33:06;;;;;;;3.50;1.50;;;;;;;16.06;33.75;97679.98;105651;1251;77070;-26
2024/03/25 10:35:35;;;;;;;3.80;1.60;;;;;;;16.34;33.20;97680.23;105536;1259;73318;-26
2024/03/25 10:38:04;;;;;;;2.90;1.20;;;;;;;16.21;32.32;97677.58;105522;1256;61263;-26
2024/03/25 10:40:39;;;;;;;2.60;1.30;;;;;;;16.28;31.48;97680.20;105696;1251;61716;-26
2024/03/25 10:43:08;;;;;;;3.00;1.40;;;;;;;16.35;31.05;97675.02;105706;1256;77825;-26
2024/03/25 10:45:49;;;;;;;2.50;1.20;;;;;;;16.62;31.01;97668.92;105631;1260;76762;-26
2024/03/25 10:48:25;;;;;;;3.10;1.60;;;;;;;16.72;30.25;97665.19;105734;1257;74575;-26
2024/03/25 10:50:53;;;;;;;3.10;1.40;;;;;;;16.14;30.09;97656.13;105415;1251;62880;-26
2024/03/25 10:53:21;;;;;;;2.50;1.20;;;;;;;16.38;30.64;97653.81;105553;1251;63041;-26
2024/03/25 10:55:50;;;;;;;2.40;1.40;;;;;;;16.81;30.44;97652.40;105717;1252;76698;-26
2024/03/25 10:58:19;;;;;;;2.50;0.90;;;;;;;16.93;30.39;97651.40;105732;1251;76536;-27
2024/03/25 11:00:48;;;;;;;2.50;1.50;;;;;;;16.86;29.84;97651.11;105721;1251;74824;-27
2024/03/25 11:03:16;;;;;;;1.80;1.10;;;;;;;16.70;30.24;97648.41;105786;1260;62809;-26
2024/03/25 11:05:44;;;;;;;3.80;1.80;;;;;;;16.58;29.62;97646.79;105751;1257;61418;-27
2024/03/25 11:08:12;;;;;;;2.40;1.50;;;;;;;16.44;30.36;97647.91;105589;1251;75889;-26
2024/03/25 11:10:44;;;;;;;2.30;1.90;;;;;;;15.01;30.30;97638.64;105614;1257;78505;-26
2024/03/25 11:13:12;;;;;;;6.00;1.70;;;;;;;14.87;31.44;97638.73;105926;1252;74102;-26
2024/03/25 11:15:44;;;;;;;2.10;1.30;;;;;;;14.81;30.43;97637.81;105646;1258;62244;-26
2024/03/25 11:18:16;;;;;;;3.00;1.20;;;;;;;14.80;30.85;97636.25;105712;1260;62538;-27
2024/03/25 11:20:44;;;;;;;2.50;1.10;;;;;;;15.50;30.78;97636.98;105725;1259;76770;-27
2024/03/25 11:23:13;;;;;;;2.20;1.10;;;;;;;15.23;29.83;97634.08;105941;1255;77328;-27
2024/03/25 11:25:41;;;;;;;2.60;0.80;;;;;;;15.14;31.47;97630.33;105686;1260;76491;-27
2024/03/25 11:28:09;;;;;;;2.10;1.30;;;;;;;14.49;30.69;97630.18;105966;1251;62504;-27
2024/03/25 11:30:37;;;;;;;3.30;1.50;;;;;;;14.78;30.50;97632.10;105711;1251;61046;-27
2024/03/25 11:33:04;;;;;;;2.00;1.00;;;;;;;14.75;28.89;97634.05;105925;1257;76005;-27
2024/03/25 11:35:38;;;;;;;2.20;1.00;;;;;;;14.82;29.85;97635.18;105990;1250;76320;-27
2024/03/25 11:38:06;;;;;;;3.80;1.10;;;;;;;14.83;29.47;97636.67;105919;1251;73689;-27
2024/03/25 11:40:35;;;;;;;3.30;0.90;;;;;;;14.86;28.91;97633.35;105693;1257;62494;-27
2024/03/25 11:43:02;;;;;;;1.20;1.10;;;;;;;14.89;28.75;97629.44;105712;1258;62213;-27
2024/03/25 11:45:31;;;;;;;1.10;0.90;;;;;;;14.95;30.44;97634.14;105721;1257;76771;-27
2024/03/25 11:47:59;;;;;;;1.50;0.90;;;;;;;15.13;30.06;97633.84;105791;1251;76145;-27
2024/03/25 11:50:26;;;;;;;1.50;0.80;;;;;;;15.14;30.62;97633.80;105933;1257;74426;-30
2024/03/25 11:52:54;;;;;;;2.40;1.20;;;;;;;15.20;29.41;97633.06;105910;1256;62835;-29
2024/03/25 11:55:22;;;;;;;2.70;1.00;;;;;;;15.03;29.69;97632.10;105907;1251;61166;-29
2024/03/25 11:57:56;;;;;;;2.50;0.80;;;;;;;14.92;31.47;97631.52;105952;1258;76538;-32
2024/03/25 12:00:24;;;;;;;1.70;1.00;;;;;;;15.24;32.48;97631.66;105941;1251;78410;-28
2024/03/25 12:02:52;;;;;;;1.30;0.90;;;;;;;15.35;30.43;97634.16;105664;1257;72877;-30
2024/03/25 12:05:20;;;;;;;2.00;1.20;;;;;;;14.89;31.49;97629.29;105620;1254;61234;-32
2024/03/25 12:07:50;;;;;;;1.30;1.10;;;;;;;14.10;33.33;97625.60;105923;1251;62819;-30
2024/03/25 12:13:05;;;;;;;2.90;1.80;;;;;;;13.45;35.23;97618.84;105925;1255;77757;-27
2024/03/25 12:15:34;;;;;;;1.20;0.60;;;;;;;13.85;35.04;97616.62;105959;1250;74598;-31
2024/03/25 12:18:02;;;;;;;2.80;1.20;;;;;;;14.13;34.59;97620.67;105765;1254;62248;-27
2024/03/25 12:20:32;;;;;;;1.90;1.20;;;;;;;13.67;34.65;97620.23;105955;1256;62774;-26
2024/03/25 12:23:08;;;;;;;1.70;0.90;;;;;;;12.90;35.26;97619.84;105792;1252;77327;-26
2024/03/25 12:25:50;;;;;;;2.50;1.10;;;;;;;13.35;34.84;97622.27;105947;1251;77218;-26
2024/03/25 12:28:18;;;;;;;3.30;2.30;;;;;;;12.89;34.77;97622.10;105762;1253;75603;-27
2024/03/25 12:30:50;;;;;;;4.10;1.40;;;;;;;12.83;35.24;97624.99;105746;1257;61389;-27
2024/03/25 12:33:17;;;;;;;1.80;1.10;;;;;;;13.17;35.97;97624.59;105778;1251;62825;-27
2024/03/25 12:35:46;;;;;;;1.60;1.00;;;;;;;13.07;35.65;97619.71;105834;1256;76119;-27
2024/03/25 12:38:26;;;;;;;2.90;1.30;;;;;;;12.82;36.50;97619.35;105560;1251;77490;-28
2024/03/25 12:41:00;;;;;;;1.00;0.70;;;;;;;12.67;37.15;97619.69;105541;1259;75529;-28
2024/03/25 12:43:28;;;;;;;;;;;;;;;12.23;37.50;97619.35;105559;1261;62946;-27
2024/03/25 12:45:55;;;;;;;2.50;1.20;;;;;;;12.14;37.84;97621.86;105763;1256;63876;-27
2024/03/25 12:48:25;;;;;;;2.90;1.30;;;;;;;12.00;37.96;97621.77;105781;1251;77514;-30
2024/03/25 12:50:56;;;;;;;3.00;1.40;;;;;;;11.79;38.00;97622.20;105567;1251;75874;-27
2024/03/25 12:53:23;;;;;;;3.60;1.20;;;;;;;11.98;38.10;97622.37;105701;1251;76738;-26
2024/03/25 12:55:51;;;;;;;2.60;1.20;;;;;;;11.98;37.85;97619.79;105636;1257;63234;-27
2024/03/25 12:58:19;;;;;;;2.60;0.90;;;;;;;11.87;37.47;97619.73;105615;1257;61241;-32
2024/03/25 13:00:46;;;;;;;3.00;1.20;;;;;;;11.81;37.95;97617.83;105647;1251;77518;-28
2024/03/25 13:03:14;;;;;;;2.60;1.00;;;;;;;11.73;37.43;97624.08;105656;1256;78450;-28
2024/03/25 13:05:43;;;;;;;2.40;1.20;;;;;;;11.60;38.01;97623.88;105768;1254;74995;-32
2024/03/25 13:08:11;;;;;;;2.10;1.20;;;;;;;11.47;38.01;97622.48;105715;1259;61807;-28
2024/03/25 13:10:39;;;;;;;1.80;1.00;;;;;;;11.58;38.63;97623.52;105928;1252;61815;-29
2024/03/25 13:13:06;;;;;;;1.90;1.00;;;;;;;11.56;38.95;97629.16;105698;1256;78852;-29
2024/03/25 13:15:35;;;;;;;3.20;1.30;;;;;;;11.24;41.89;97624.52;105588;1258;77110;-30
2024/03/25 13:18:10;;;;;;;1.60;0.90;;;;;;;10.77;45.11;97625.30;105662;1254;76708;-30
2024/03/25 13:20:37;;;;;;;0.90;0.80;;;;;;;10.45;47.43;97624.26;105924;1256;61288;-29
2024/03/25 13:23:07;;;;;;;1.70;1.10;;;;;;;10.05;50.26;97627.40;105959;1250;62856;-29
2024/03/25 13:25:34;;;;;;;1.60;1.10;;;;;;;9.77;50.38;97628.15;105903;1256;75476;-29
2024/03/25 13:28:03;;;;;;;1.20;1.00;;;;;;;9.71;49.42;97623.98;105671;1251;75775;-27
2024/03/25 13:30:31;;;;;;;3.90;1.10;;;;;;;9.59;51.06;97625.85;105730;1251;75714;-32
2024/03/25 13:32:58;;;;;;;1.20;0.90;;;;;;;9.33;50.23;97628.54;105774;1253;61485;-30
2024/03/25 13:35:27;;;;;;;2.60;1.00;;;;;;;9.28;50.55;97623.69;105734;1253;61661;-31
2024/03/25 13:37:54;;;;;;;2.70;1.40;;;;;;;9.26;50.74;97625.04;105927;1252;76137;-30
2024/03/25 13:40:22;;;;;;;1.40;1.20;;;;;;;8.93;52.19;97628.13;105945;1256;75664;-31
2024/03/25 13:42:49;;;;;;;3.50;1.50;;;;;;;8.98;50.64;97624.21;105682;1257;73968;-32
2024/03/25 13:45:17;;;;;;;3.20;2.00;;;;;;;9.09;51.31;97629.31;105710;1257;62012;-31
2024/03/25 13:47:45;;;;;;;5.00;1.40;;;;;;;9.18;52.41;97634.33;105727;1250;62179;-30
2024/03/25 13:50:12;;;;;;;2.40;1.00;;;;;;;9.24;52.38;97634.83;105727;1257;76725;-33
2024/03/25 13:52:40;;;;;;;2.20;1.90;;;;;;;9.20;53.61;97636.05;105690;1251;78487;-30
2024/03/25 13:55:08;;;;;;;1.90;1.20;;;;;;;9.12;52.87;97642.39;105886;1251;76034;-27
2024/03/25 13:57:36;;;;;;;2.10;1.20;;;;;;;9.12;52.75;97640.77;105897;1253;61750;-28
2024/03/25 14:00:08;;;;;;;1.70;1.20;;;;;;;9.00;52.51;97642.95;105917;1251;61684;-27
2024/03/25 14:02:39;;;;;;;4.10;1.40;;;;;;;8.90;53.32;97644.79;105717;1250;76511;-26
2024/03/25 14:05:07;;;;;;;3.50;1.60;;;;;;;8.87;53.40;97646.66;105978;1256;75196;-26
2024/03/25 14:07:34;;;;;;;1.80;1.10;;;;;;;9.00;53.20;97645.44;105693;1254;74752;-32
2024/03/25 14:10:03;;;;;;;1.40;0.80;;;;;;;9.13;50.67;97642.27;105846;1256;62046;-28
2024/03/25 14:12:31;;;;;;;1.30;0.80;;;;;;;9.28;49.35;97641.64;105962;1254;62467;-28
2024/03/25 14:22:42;;;;;;;2.40;1.20;;;;;;;9.64;47.13;97644.40;102737;1292;600118;-25
2024/03/25 14:25:10;;;;;;;3.20;1.20;;;;;;;9.74;48.06;97647.71;105096;1267;61347;-27
2024/03/25 14:27:37;;;;;;;1.70;1.00;;;;;;;9.81;49.59;97643.55;104857;1270;62760;-28
2024/03/25 14:30:07;;;;;;;4.10;1.30;;;;;;;9.56;52.02;97644.77;104799;1269;74493;-26